createdAt,value
2022-12-07T07:00:05.711Z,40.67
2022-12-07T07:02:32.986Z,42.23
2022-12-07T07:05:00.042Z,38.77
2022-12-07T07:07:27.041Z,35.63
2022-12-07T07:09:55.025Z,36.83
2022-12-07T07:12:22.042Z,34.70
2022-12-07T07:14:48.907Z,32.83
2022-12-07T07:17:16.389Z,32.53
2022-12-07T07:19:43.262Z,32.87
2022-12-07T07:22:10.126Z,30.13
2022-12-07T07:24:36.930Z,30.23
2022-12-07T07:27:03.754Z,30.90
2022-12-07T07:29:30.565Z,31.77
2022-12-07T07:32:00.690Z,29.80
2022-12-07T07:34:31.859Z,32.63
2022-12-07T07:36:58.620Z,42.00
2022-12-07T07:39:25.390Z,37.60
2022-12-07T07:41:52.225Z,37.57
2022-12-07T07:44:28.926Z,48.07
2022-12-07T07:46:58.452Z,40.60
2022-12-07T07:49:25.354Z,40.67
2022-12-07T07:51:52.127Z,32.70
2022-12-07T07:54:19.013Z,37.63
2022-12-07T07:56:45.766Z,42.50
2022-12-07T07:59:12.592Z,43.73
2022-12-07T08:01:39.476Z,40.80
2022-12-07T08:04:06.310Z,40.47
2022-12-07T08:06:33.085Z,47.63
2022-12-07T08:09:00.318Z,35.27
2022-12-07T08:11:27.128Z,31.63
2022-12-07T08:13:53.935Z,30.10
2022-12-07T08:16:20.845Z,31.63
2022-12-07T08:18:47.699Z,31.67
2022-12-07T08:21:16.326Z,30.50
2022-12-07T08:23:43.464Z,34.33
2022-12-07T08:26:12.401Z,34.67
2022-12-07T08:28:40.420Z,35.22
2022-12-07T08:31:16.056Z,38.57
2022-12-07T08:33:43.716Z,37.20
2022-12-07T08:36:13.229Z,36.67
2022-12-07T08:38:44.957Z,34.87
2022-12-07T08:41:18.796Z,34.93
2022-12-07T08:43:45.717Z,35.53
2022-12-07T08:46:46.621Z,33.20
2022-12-07T08:49:19.631Z,35.77
2022-12-07T08:51:46.593Z,35.90
2022-12-07T08:54:17.934Z,34.97
2022-12-07T08:56:46.407Z,38.30
2022-12-07T08:59:16.128Z,36.30
2022-12-07T09:01:43.170Z,36.57
2022-12-07T09:04:10.228Z,37.57
2022-12-07T09:06:37.292Z,35.47
2022-12-07T09:09:04.762Z,34.87
2022-12-07T09:11:31.892Z,32.87
2022-12-07T09:13:58.683Z,34.37
2022-12-07T09:16:25.650Z,33.17
2022-12-07T09:18:52.577Z,37.07
2022-12-07T09:21:19.425Z,35.57
2022-12-07T09:23:46.205Z,32.50
2022-12-07T09:26:13.267Z,33.20
2022-12-07T09:28:40.612Z,38.23
2022-12-07T09:31:24.866Z,36.13
2022-12-07T09:33:57.860Z,35.57
2022-12-07T09:36:25.486Z,36.40
2022-12-07T09:38:52.968Z,35.13
2022-12-07T09:41:20.633Z,35.37
2022-12-07T09:43:48.252Z,38.40
2022-12-07T09:46:20.222Z,32.80
2022-12-07T09:48:51.096Z,33.43
2022-12-07T09:51:24.268Z,35.23
2022-12-07T09:53:53.670Z,35.67
2022-12-07T09:56:21.789Z,37.40
2022-12-07T09:58:50.093Z,32.97
2022-12-07T10:01:20.236Z,34.60
2022-12-07T10:03:52.192Z,30.10
2022-12-07T10:06:19.695Z,30.67
2022-12-07T10:08:46.816Z,32.33
2022-12-07T10:11:15.899Z,30.13
2022-12-07T10:13:50.127Z,27.50
2022-12-07T10:16:26.675Z,25.80
2022-12-07T10:18:53.953Z,23.73
2022-12-07T10:21:28.154Z,23.02
2022-12-07T10:24:06.971Z,21.20
2022-12-07T10:26:47.228Z,23.85
2022-12-07T10:29:21.382Z,24.55
2022-12-07T10:32:01.897Z,23.52
2022-12-07T10:34:29.993Z,21.27
2022-12-07T10:37:17.820Z,23.33
2022-12-07T10:39:49.096Z,22.98
2022-12-07T10:42:23.770Z,23.38
2022-12-07T10:45:07.860Z,24.23
2022-12-07T10:48:07.356Z,21.65
2022-12-07T10:50:55.798Z,24.50
2022-12-07T10:53:39.951Z,23.60
2022-12-07T10:56:15.683Z,22.48
2022-12-07T10:59:09.620Z,23.55
2022-12-07T11:01:48.145Z,22.67
2022-12-07T11:04:39.474Z,22.88
2022-12-07T11:07:09.047Z,24.52
2022-12-07T11:10:07.241Z,25.02
2022-12-07T11:13:03.669Z,24.55
2022-12-07T11:15:44.738Z,23.73
2022-12-07T11:18:20.444Z,23.67
2022-12-07T11:21:07.815Z,23.45
2022-12-07T11:23:53.258Z,23.10
2022-12-07T11:26:28.801Z,21.83
2022-12-07T11:29:24.808Z,23.15
2022-12-07T11:31:56.188Z,20.38
2022-12-07T11:34:35.032Z,18.08
2022-12-07T11:37:06.109Z,19.13
2022-12-07T11:39:40.653Z,18.27
2022-12-07T11:42:16.069Z,17.48
2022-12-07T11:44:57.975Z,17.20
2022-12-07T11:47:46.415Z,16.52
2022-12-07T11:50:25.109Z,15.35
2022-12-07T11:53:12.296Z,17.98
2022-12-07T11:56:38.129Z,17.52
2022-12-07T11:59:16.908Z,16.25
2022-12-07T12:01:57.662Z,17.38
2022-12-07T12:04:35.320Z,16.23
2022-12-07T12:10:15.436Z,17.05
2022-12-07T12:16:21.765Z,18.27
2022-12-07T12:19:26.393Z,17.73
2022-12-07T12:22:11.710Z,17.95
2022-12-07T12:24:41.091Z,19.63
2022-12-07T12:29:41.058Z,18.85
2022-12-07T12:32:37.940Z,17.98
2022-12-07T12:35:38.120Z,19.15
2022-12-07T12:38:26.613Z,17.83
2022-12-07T12:40:54.397Z,19.13
2022-12-07T12:43:53.901Z,18.50
2022-12-07T12:46:34.724Z,17.70
2022-12-07T12:49:16.762Z,16.30
2022-12-07T12:51:48.131Z,15.23
2022-12-07T12:54:24.790Z,16.25
2022-12-07T12:57:00.722Z,14.90
2022-12-07T12:59:29.442Z,14.63
2022-12-07T13:02:11.103Z,13.82
2022-12-07T13:04:53.458Z,13.20
2022-12-07T13:07:55.404Z,9.85
2022-12-07T13:10:24.382Z,11.65
2022-12-07T13:13:16.260Z,12.50
2022-12-07T13:15:51.903Z,12.45
2022-12-07T13:18:28.787Z,13.73
2022-12-07T13:21:10.636Z,15.32
2022-12-07T13:23:46.751Z,14.98
2022-12-07T13:26:23.487Z,13.70
2022-12-07T13:29:07.060Z,14.75
2022-12-07T13:31:33.967Z,12.93
2022-12-07T13:34:02.198Z,14.18
2022-12-07T13:36:36.777Z,10.73
2022-12-07T13:39:25.383Z,11.30
2022-12-07T13:41:57.852Z,12.70
2022-12-07T13:44:29.343Z,13.57
2022-12-07T13:47:02.461Z,14.15
2022-12-07T13:49:32.268Z,15.13
2022-12-07T13:52:32.087Z,14.70
2022-12-07T13:55:05.578Z,16.25
2022-12-07T13:57:36.287Z,33.40
2022-12-07T14:00:06.802Z,18.63
2022-12-07T14:02:39.927Z,18.00
2022-12-07T14:05:24.554Z,17.10
2022-12-07T14:08:00.673Z,14.70
2022-12-07T14:10:30.275Z,14.60
2022-12-07T14:12:58.434Z,15.65
2022-12-07T14:15:29.944Z,16.30
2022-12-07T14:17:57.914Z,16.88
2022-12-07T14:20:37.472Z,16.13
2022-12-07T14:23:11.986Z,25.58
2022-12-07T14:25:51.785Z,15.32
2022-12-07T14:28:31.985Z,12.90
2022-12-07T14:30:59.564Z,13.20
2022-12-07T14:33:26.991Z,12.45
2022-12-07T14:35:56.649Z,13.18
2022-12-07T14:38:23.579Z,12.57
2022-12-07T14:40:50.436Z,13.50
2022-12-07T14:43:19.176Z,11.90
2022-12-07T14:45:46.095Z,12.18
2022-12-07T14:53:56.957Z,12.65
2022-12-07T14:56:25.748Z,11.90
2022-12-07T14:58:52.639Z,11.80
2022-12-07T15:01:19.546Z,13.63
2022-12-07T15:03:46.864Z,17.00
2022-12-07T15:06:19.319Z,15.95
2022-12-07T15:08:46.413Z,13.57
2022-12-07T15:11:15.560Z,14.07
2022-12-07T15:14:00.868Z,11.95
2022-12-07T15:16:33.437Z,14.40
2022-12-07T15:19:30.006Z,12.82
2022-12-07T15:21:58.179Z,11.73
2022-12-07T15:24:25.343Z,15.20
2022-12-07T15:26:53.392Z,13.82
2022-12-07T15:29:23.163Z,21.63
2022-12-07T15:31:56.403Z,18.48
2022-12-07T15:34:33.509Z,21.00
2022-12-07T15:37:06.777Z,34.78
2022-12-07T15:39:33.678Z,73.90
2022-12-07T15:42:00.473Z,36.38
2022-12-07T15:44:45.808Z,42.70
2022-12-07T15:47:12.752Z,33.70
2022-12-07T15:49:39.624Z,32.83
2022-12-07T15:52:06.472Z,32.85
2022-12-07T15:54:36.265Z,29.58
2022-12-07T15:57:03.252Z,29.57
2022-12-07T15:59:30.636Z,29.50
2022-12-07T16:01:58.171Z,33.13
2022-12-07T16:04:25.151Z,29.73
2022-12-07T16:06:52.428Z,30.13
2022-12-07T16:09:20.113Z,35.20
2022-12-07T16:11:47.140Z,42.65
2022-12-07T16:14:14.460Z,34.83
2022-12-07T16:16:41.602Z,34.93
2022-12-07T16:19:09.600Z,32.70
2022-12-07T16:21:36.991Z,32.67
2022-12-07T16:24:04.552Z,34.20
2022-12-07T16:26:31.574Z,33.87
2022-12-07T16:28:58.960Z,35.80
2022-12-07T16:31:27.813Z,52.17
2022-12-07T16:33:57.919Z,66.38
2022-12-07T16:39:13.851Z,70.70
2022-12-07T16:41:40.720Z,104.33
2022-12-07T16:44:10.529Z,180.70
2022-12-07T16:46:38.055Z,110.17
2022-12-07T16:49:05.732Z,136.20
2022-12-07T16:51:34.228Z,119.77
2022-12-07T16:54:01.088Z,132.37
2022-12-07T16:56:30.160Z,126.10
2022-12-07T16:58:59.647Z,140.57
2022-12-07T17:03:58.696Z,153.40
2022-12-07T17:06:30.745Z,127.57
2022-12-07T17:08:58.256Z,119.00
2022-12-07T17:11:27.962Z,125.57
2022-12-07T17:14:14.263Z,120.90
2022-12-07T17:16:41.353Z,104.57
2022-12-07T17:19:11.009Z,86.43
2022-12-07T17:21:39.322Z,86.03
2022-12-07T17:24:08.710Z,83.27
2022-12-07T17:26:36.275Z,66.55
2022-12-07T17:29:05.269Z,58.17
2022-12-07T17:31:33.731Z,67.53
2022-12-07T17:34:00.980Z,82.47
2022-12-07T17:36:32.823Z,86.67
2022-12-07T17:38:59.986Z,95.10
2022-12-07T17:41:47.954Z,75.80
2022-12-07T17:44:17.867Z,96.83
2022-12-07T17:46:45.942Z,71.33
2022-12-07T17:49:13.545Z,59.37
2022-12-07T17:51:58.978Z,64.70
2022-12-07T17:54:25.829Z,70.47
2022-12-07T17:56:52.832Z,63.57
2022-12-07T17:59:19.903Z,62.70
2022-12-07T18:01:47.427Z,59.83
2022-12-07T18:04:14.394Z,58.07
2022-12-07T18:06:41.496Z,63.80
2022-12-07T18:09:09.336Z,61.90
2022-12-07T18:11:36.730Z,57.90
2022-12-07T18:14:04.057Z,42.67
2022-12-07T18:16:35.649Z,43.53
2022-12-07T18:19:04.742Z,42.33
2022-12-07T18:21:31.958Z,75.95
2022-12-07T18:24:04.660Z,60.93
2022-12-07T18:26:33.786Z,51.07
2022-12-07T18:29:01.111Z,41.90
2022-12-07T18:31:29.443Z,39.83
2022-12-07T18:33:57.265Z,40.50
2022-12-07T18:36:24.520Z,53.50
2022-12-07T18:38:51.873Z,55.23
2022-12-07T18:41:19.326Z,62.90
2022-12-07T18:43:46.265Z,77.83
2022-12-07T18:46:19.455Z,84.70
2022-12-07T18:48:47.538Z,78.93
2022-12-07T18:51:15.706Z,74.73
2022-12-07T18:53:43.308Z,81.83
2022-12-07T18:56:21.540Z,93.60
2022-12-07T18:59:15.250Z,92.67
2022-12-07T19:01:43.949Z,80.20
2022-12-07T19:04:11.167Z,81.55
2022-12-07T19:06:38.295Z,73.33
2022-12-07T19:09:06.342Z,71.23
2022-12-07T19:11:52.698Z,74.20
2022-12-07T19:14:27.712Z,55.53
2022-12-07T19:17:02.938Z,67.60
2022-12-07T19:19:34.176Z,70.93
2022-12-07T19:22:01.345Z,78.07
2022-12-07T19:24:29.457Z,77.30
2022-12-07T19:26:59.015Z,79.47
2022-12-07T19:29:28.290Z,76.83
2022-12-07T19:31:55.268Z,78.68
2022-12-07T19:34:22.186Z,64.37
2022-12-07T19:36:49.045Z,57.90
2022-12-07T19:39:16.385Z,63.87
2022-12-07T19:41:44.459Z,68.00
2022-12-07T19:44:17.093Z,55.63
2022-12-07T19:46:46.911Z,71.03
2022-12-07T19:49:16.509Z,58.37
2022-12-07T19:54:19.312Z,41.17
2022-12-07T19:56:47.459Z,32.67
2022-12-07T19:59:15.675Z,46.77
2022-12-07T20:01:43.644Z,36.93
2022-12-07T20:04:13.832Z,31.40
2022-12-07T20:06:40.722Z,38.67
2022-12-07T20:09:07.583Z,34.90
2022-12-07T20:11:54.258Z,30.60
2022-12-07T20:14:24.537Z,31.63
2022-12-07T20:16:52.096Z,41.43
2022-12-07T20:19:19.534Z,44.37
2022-12-07T20:21:47.208Z,43.40
2022-12-07T20:24:17.563Z,35.83
2022-12-07T20:26:45.906Z,29.43
2022-12-07T20:29:18.387Z,29.20
2022-12-07T20:31:47.465Z,34.30
2022-12-07T20:34:15.209Z,36.72
2022-12-07T20:36:42.087Z,36.93
2022-12-07T20:39:10.256Z,40.17
2022-12-07T20:41:55.639Z,39.73
2022-12-07T20:44:22.440Z,44.07
2022-12-07T20:46:49.843Z,55.37
2022-12-07T20:49:17.319Z,50.17
2022-12-07T20:51:46.370Z,52.20
2022-12-07T20:54:14.181Z,50.08
2022-12-07T20:56:41.528Z,44.87
2022-12-07T20:59:12.677Z,49.10
2022-12-07T21:01:40.143Z,48.33
2022-12-07T21:04:07.097Z,57.37
2022-12-07T21:06:34.040Z,62.63
2022-12-07T21:09:01.641Z,85.83
2022-12-07T21:11:30.715Z,95.50
2022-12-07T21:13:58.306Z,85.25
2022-12-07T21:16:29.095Z,78.77
2022-12-07T21:18:58.102Z,78.43
2022-12-07T21:21:25.267Z,77.35
2022-12-07T21:23:58.393Z,71.43
2022-12-07T21:26:29.727Z,62.83
2022-12-07T21:28:57.168Z,69.13
2022-12-07T21:31:24.280Z,64.03
2022-12-07T21:33:51.412Z,66.80
2022-12-07T21:36:21.267Z,65.43
2022-12-07T21:38:49.054Z,69.07
2022-12-07T21:41:22.645Z,63.67
2022-12-07T21:43:50.948Z,68.13
2022-12-07T21:46:21.342Z,65.10
2022-12-07T21:48:53.217Z,70.95
2022-12-07T21:51:21.685Z,67.67
2022-12-07T21:53:49.480Z,57.63
2022-12-07T21:56:25.702Z,65.23
2022-12-07T21:58:54.021Z,65.00
2022-12-07T22:01:25.343Z,67.43
2022-12-07T22:03:53.063Z,67.57
2022-12-07T22:06:22.881Z,68.17
2022-12-07T22:08:51.173Z,69.43
2022-12-07T22:11:19.496Z,60.40
2022-12-07T22:14:10.373Z,72.90
2022-12-07T22:16:39.330Z,79.17
2022-12-07T22:19:08.309Z,75.20
2022-12-07T22:21:35.681Z,93.93
2022-12-07T22:24:03.522Z,87.57
2022-12-07T22:26:30.789Z,70.63
2022-12-07T22:28:57.943Z,107.43
2022-12-07T22:31:25.326Z,91.87
2022-12-07T22:33:52.278Z,85.53
2022-12-07T22:36:19.457Z,91.93
2022-12-07T22:38:47.184Z,89.77
2022-12-07T22:41:19.690Z,86.73
2022-12-07T22:43:46.503Z,88.23
2022-12-07T22:46:13.351Z,82.23
2022-12-07T22:48:40.197Z,82.13
2022-12-07T22:51:07.097Z,92.73
2022-12-07T22:53:33.964Z,68.10
2022-12-07T22:56:03.937Z,72.60
2022-12-07T22:58:30.705Z,72.87
2022-12-07T23:00:57.565Z,67.87
2022-12-07T23:03:24.409Z,59.83
2022-12-07T23:05:52.411Z,65.33
2022-12-07T23:08:19.290Z,66.73
2022-12-07T23:10:48.390Z,57.37
2022-12-07T23:13:33.536Z,64.80
2022-12-07T23:16:01.757Z,60.40
2022-12-07T23:18:28.663Z,55.67
2022-12-07T23:20:57.150Z,48.43
2022-12-07T23:23:24.294Z,51.97
2022-12-07T23:25:51.320Z,57.40
2022-12-07T23:28:18.247Z,52.00
2022-12-07T23:30:45.619Z,53.50
2022-12-07T23:33:12.484Z,53.50
2022-12-07T23:35:39.332Z,52.00
2022-12-07T23:38:06.153Z,54.80
2022-12-07T23:40:35.160Z,52.13
2022-12-07T23:43:02.005Z,50.90
2022-12-07T23:45:29.113Z,53.03
2022-12-07T23:47:55.936Z,56.03
2022-12-07T23:50:24.261Z,53.47
2022-12-07T23:52:51.070Z,54.10
2022-12-07T23:55:18.031Z,63.20
2022-12-07T23:57:44.869Z,55.20
